createdAt,value
2023-03-26T00:38:49.431Z,7.04
2023-03-26T00:42:49.417Z,12.58
2023-03-26T00:46:49.381Z,14.95
2023-03-26T00:50:49.311Z,15.57
2023-03-26T00:54:49.542Z,15.10
2023-03-26T00:58:49.772Z,14.96
2023-03-26T01:02:49.888Z,14.93
2023-03-26T01:06:49.870Z,12.99
2023-03-26T01:10:49.829Z,11.17
2023-03-26T01:14:51.093Z,12.23
2023-03-26T01:18:49.788Z,8.05
2023-03-26T01:22:49.790Z,6.98
2023-03-26T01:26:49.805Z,6.17
2023-03-26T01:30:49.941Z,5.72
2023-03-26T01:34:49.876Z,5.37
2023-03-26T01:38:49.831Z,5.65
2023-03-26T01:42:49.824Z,5.53
2023-03-26T01:46:49.906Z,6.27
2023-03-26T01:50:49.829Z,5.93
2023-03-26T01:54:49.834Z,5.40
2023-03-26T01:58:49.849Z,5.12
2023-03-26T02:02:49.920Z,5.49
2023-03-26T02:06:49.885Z,5.62
2023-03-26T02:10:49.948Z,6.03
2023-03-26T02:14:50.008Z,6.50
2023-03-26T05:10:54.351Z,16.72
2023-03-26T05:14:54.377Z,19.19
2023-03-26T05:18:54.337Z,19.49
2023-03-26T05:22:54.291Z,19.77
2023-03-26T05:26:54.265Z,20.58
2023-03-26T05:30:54.463Z,25.23
2023-03-26T05:34:54.154Z,26.39
2023-03-26T05:38:54.167Z,28.03
2023-03-26T05:42:54.119Z,27.70
2023-03-26T05:46:54.057Z,26.86
2023-03-26T05:50:54.191Z,27.35
2023-03-26T05:54:54.003Z,26.09
2023-03-26T05:58:54.192Z,25.80
2023-03-26T06:02:54.263Z,24.68
2023-03-26T06:06:54.119Z,23.36
2023-03-26T06:10:54.308Z,22.79
2023-03-26T06:14:54.041Z,19.92
2023-03-26T06:18:56.745Z,18.58
2023-03-26T06:22:53.953Z,15.72
2023-03-26T06:26:53.952Z,14.75
2023-03-26T06:30:54.080Z,15.53
2023-03-26T06:34:53.892Z,16.47
2023-03-26T06:38:53.841Z,16.07
2023-03-26T06:43:07.053Z,16.13
2023-03-26T06:46:54.780Z,15.86
2023-03-26T06:50:53.950Z,13.66
2023-03-26T06:54:53.731Z,14.13
2023-03-26T06:58:53.684Z,12.89
2023-03-26T07:02:53.656Z,11.75
2023-03-26T07:06:53.630Z,11.40
2023-03-26T07:10:53.797Z,9.88
2023-03-26T07:14:53.516Z,10.43
2023-03-26T07:18:53.501Z,10.54
2023-03-26T07:22:53.560Z,10.38
2023-03-26T07:26:53.488Z,10.47
2023-03-26T07:30:53.627Z,9.20
2023-03-26T07:34:53.604Z,7.48
2023-03-26T07:38:53.761Z,6.00
2023-03-26T07:42:53.927Z,5.72
2023-03-26T07:46:54.111Z,5.12
2023-03-26T07:50:54.442Z,3.88
2023-03-26T07:54:54.535Z,3.50
2023-03-26T07:58:54.997Z,3.70
2023-03-26T08:02:55.016Z,3.67
2023-03-26T08:06:55.065Z,3.89
2023-03-26T08:10:55.441Z,3.88
2023-03-26T08:14:55.418Z,4.09
2023-03-26T08:18:55.707Z,3.56
2023-03-26T08:22:55.750Z,3.22
2023-03-26T08:26:55.951Z,3.30
2023-03-26T08:30:56.350Z,2.93
2023-03-26T08:34:56.311Z,2.67
2023-03-26T08:38:56.442Z,2.59
2023-03-26T08:42:56.623Z,2.93
2023-03-26T08:46:56.736Z,3.45
2023-03-26T08:50:57.052Z,2.99
2023-03-26T08:54:57.401Z,2.84
2023-03-26T08:58:57.036Z,2.68
2023-03-26T09:02:57.167Z,2.37
2023-03-26T09:06:57.211Z,2.27
2023-03-26T09:10:57.452Z,2.26
2023-03-26T09:14:57.443Z,2.49
2023-03-26T09:18:57.489Z,1.98
2023-03-26T09:22:57.604Z,1.99
2023-03-26T09:26:57.682Z,1.95
2023-03-26T09:30:57.823Z,1.48
2023-03-26T09:34:57.898Z,1.30
2023-03-26T09:38:58.015Z,1.19
2023-03-26T09:42:58.137Z,1.24
2023-03-26T09:46:58.224Z,1.44
2023-03-26T09:50:58.601Z,1.48
2023-03-26T09:54:58.568Z,1.44
2023-03-26T09:58:58.811Z,1.18
2023-03-26T10:02:58.728Z,0.98
2023-03-26T10:06:58.806Z,0.94
2023-03-26T10:10:58.887Z,0.98
2023-03-26T10:14:58.977Z,1.16
2023-03-26T10:18:59.074Z,1.09
2023-03-26T10:22:59.167Z,1.08
2023-03-26T10:27:09.349Z,1.20
2023-03-26T10:31:00.338Z,1.32
2023-03-26T10:34:59.200Z,1.42
2023-03-26T10:38:59.181Z,1.71
2023-03-26T10:42:59.103Z,1.98
2023-03-26T10:46:59.140Z,2.21
2023-03-26T10:50:59.034Z,2.29
2023-03-26T10:54:59.018Z,2.44
2023-03-26T10:58:58.982Z,2.46
2023-03-26T11:02:58.959Z,2.63
2023-03-26T11:06:58.902Z,2.61
2023-03-26T11:10:58.865Z,2.66
2023-03-26T11:14:58.843Z,2.57
2023-03-26T11:18:58.802Z,2.35
2023-03-26T11:22:58.768Z,2.36
2023-03-26T11:27:15.333Z,2.92
2023-03-26T11:31:00.040Z,3.05
2023-03-26T11:34:58.721Z,3.41
2023-03-26T11:38:58.900Z,3.45
2023-03-26T11:42:58.882Z,3.49
2023-03-26T11:46:58.974Z,3.78
2023-03-26T11:50:58.824Z,3.88
2023-03-26T11:54:58.744Z,3.88
2023-03-26T11:58:58.706Z,3.88
2023-03-26T12:02:58.751Z,4.10
2023-03-26T12:06:58.677Z,3.55
2023-03-26T12:10:58.600Z,2.96
2023-03-26T12:14:58.551Z,2.61
2023-03-26T12:18:58.613Z,2.72
2023-03-26T12:22:58.575Z,3.19
2023-03-26T12:26:58.525Z,3.05
2023-03-26T12:30:58.505Z,3.12
2023-03-26T12:34:58.500Z,3.03
2023-03-26T12:39:43.646Z,3.22
2023-03-26T12:44:48.504Z,3.22
2023-03-26T12:47:56.208Z,2.80
2023-03-26T12:50:59.385Z,2.64
2023-03-26T12:54:58.309Z,2.74
2023-03-26T12:58:58.283Z,2.55
2023-03-26T13:02:58.330Z,2.22
2023-03-26T13:07:01.822Z,1.65
2023-03-26T13:10:58.317Z,1.30
2023-03-26T13:14:58.143Z,0.93
2023-03-26T13:18:58.110Z,0.93
2023-03-26T13:22:58.038Z,0.53
2023-03-26T13:26:58.025Z,0.51
2023-03-26T13:30:58.228Z,0.59
2023-03-26T13:34:58.066Z,0.77
2023-03-26T13:38:59.657Z,0.96
2023-03-26T13:42:58.125Z,1.00
2023-03-26T13:46:58.096Z,1.05
2023-03-26T13:50:58.061Z,1.26
2023-03-26T13:54:58.019Z,1.19
2023-03-26T13:58:57.991Z,1.40
2023-03-26T14:02:58.124Z,2.05
2023-03-26T14:06:57.927Z,2.55
2023-03-26T14:10:57.879Z,2.51
2023-03-26T14:14:57.843Z,2.16
2023-03-26T14:18:57.803Z,2.05
2023-03-26T14:22:57.814Z,2.02
2023-03-26T14:26:57.703Z,2.08
2023-03-26T14:30:57.997Z,2.93
2023-03-26T14:34:57.679Z,3.51
2023-03-26T14:38:57.678Z,4.03
2023-03-26T14:42:57.602Z,4.39
2023-03-26T14:46:57.592Z,5.07
2023-03-26T14:50:57.614Z,5.38
2023-03-26T14:54:57.485Z,5.01
2023-03-26T14:58:57.440Z,4.78
2023-03-26T15:02:57.463Z,3.78
2023-03-26T15:06:57.363Z,4.35
2023-03-26T15:10:57.645Z,4.61
2023-03-26T15:14:58.135Z,4.82
2023-03-26T15:18:57.303Z,4.44
2023-03-26T15:22:57.229Z,4.39
2023-03-26T15:26:57.202Z,4.34
2023-03-26T15:30:57.310Z,4.83
2023-03-26T15:34:57.131Z,5.04
2023-03-26T15:38:57.080Z,5.38
2023-03-26T15:42:57.042Z,6.17
2023-03-26T15:46:57.044Z,5.92
2023-03-26T15:50:57.180Z,5.73
2023-03-26T15:54:56.926Z,5.72
2023-03-26T15:58:56.888Z,6.95
2023-03-26T16:02:56.872Z,6.94
2023-03-26T16:06:56.844Z,6.65
2023-03-26T16:10:57.010Z,6.74
2023-03-26T16:14:56.753Z,9.46
2023-03-26T16:18:56.730Z,10.03
2023-03-26T16:22:56.695Z,11.45
2023-03-26T16:26:56.704Z,10.69
2023-03-26T16:30:57.165Z,10.24
2023-03-26T16:34:56.805Z,9.66
2023-03-26T16:38:56.808Z,8.74
2023-03-26T16:42:56.833Z,8.01
2023-03-26T16:46:56.909Z,8.14
2023-03-26T16:50:57.159Z,7.66
2023-03-26T16:54:56.988Z,8.23
2023-03-26T16:58:57.417Z,8.81
2023-03-26T17:02:57.205Z,8.51
2023-03-26T17:06:57.108Z,8.72
2023-03-26T17:10:57.338Z,8.78
2023-03-26T17:14:57.232Z,8.94
2023-03-26T17:18:57.578Z,8.24
2023-03-26T17:22:57.339Z,7.94
2023-03-26T17:26:57.389Z,7.93
2023-03-26T17:30:57.693Z,8.31
2023-03-26T17:34:57.546Z,9.92
2023-03-26T17:38:57.603Z,9.00
2023-03-26T17:42:57.657Z,9.19
2023-03-26T17:46:57.781Z,9.82
2023-03-26T17:50:58.301Z,9.78
2023-03-26T17:54:57.947Z,9.83
2023-03-26T17:58:58.078Z,9.68
2023-03-26T18:02:59.126Z,9.53
2023-03-26T18:06:58.038Z,8.51
2023-03-26T18:10:58.004Z,7.20
2023-03-26T18:14:58.063Z,6.98
2023-03-26T18:18:58.186Z,6.42
2023-03-26T18:22:58.338Z,5.92
2023-03-26T18:26:58.542Z,6.18
2023-03-26T18:30:58.693Z,7.90
2023-03-26T18:34:58.862Z,9.26
2023-03-26T18:38:59.044Z,8.05
2023-03-26T18:42:59.208Z,8.02
2023-03-26T18:46:59.347Z,7.88
2023-03-26T18:50:59.499Z,7.32
2023-03-26T18:55:00.451Z,6.73
2023-03-26T18:58:59.413Z,6.16
2023-03-26T19:02:59.501Z,7.16
2023-03-26T19:06:59.682Z,6.55
2023-03-26T19:10:59.851Z,6.27
2023-03-26T19:15:00.106Z,6.92
2023-03-26T19:19:00.271Z,7.16
2023-03-26T19:23:00.446Z,6.75
2023-03-26T19:27:00.680Z,6.83
2023-03-26T19:31:00.909Z,6.75
2023-03-26T19:35:01.047Z,6.84
2023-03-26T19:39:01.634Z,6.20
2023-03-26T19:43:02.690Z,5.79
2023-03-26T19:47:01.543Z,5.34
2023-03-26T19:51:01.380Z,5.22
2023-03-26T19:55:01.391Z,5.11
2023-03-26T19:59:01.306Z,5.04
2023-03-26T20:03:01.330Z,5.50
2023-03-26T20:07:01.290Z,5.57
2023-03-26T20:11:01.181Z,5.96
2023-03-26T20:15:01.161Z,6.07
2023-03-26T20:19:01.123Z,5.95
2023-03-26T20:23:01.081Z,6.24
2023-03-26T20:27:01.162Z,5.99
2023-03-26T20:31:01.324Z,6.20
2023-03-26T20:35:01.537Z,6.42
2023-03-26T20:39:01.695Z,6.22
2023-03-26T20:43:01.908Z,6.20
2023-03-26T20:47:02.192Z,5.03
2023-03-26T20:51:02.361Z,5.00
2023-03-26T20:55:02.521Z,5.11
2023-03-26T20:59:10.342Z,5.00
2023-03-26T21:03:03.771Z,4.36
2023-03-26T21:07:11.063Z,5.07
2023-03-26T21:11:03.602Z,5.34
2023-03-26T21:15:05.183Z,5.95
2023-03-26T21:19:03.572Z,6.16
2023-03-26T21:23:02.542Z,6.40
2023-03-26T21:27:02.794Z,5.30
2023-03-26T21:31:03.016Z,5.95
2023-03-26T21:35:02.738Z,5.85
2023-03-26T21:39:02.671Z,5.22
2023-03-26T21:43:02.622Z,5.62
2023-03-26T21:47:02.607Z,5.64
2023-03-26T21:51:02.592Z,5.70
2023-03-26T21:55:02.498Z,6.07
2023-03-26T21:59:02.483Z,6.33
2023-03-26T22:03:02.698Z,6.32
2023-03-26T22:07:02.518Z,5.41
2023-03-26T22:11:02.456Z,5.33
2023-03-26T22:15:02.461Z,5.35
2023-03-26T22:19:02.421Z,4.78
2023-03-26T22:23:02.386Z,4.77
2023-03-26T22:27:02.366Z,4.72
2023-03-26T22:31:02.347Z,4.71
2023-03-26T22:35:02.467Z,4.71
2023-03-26T22:39:02.448Z,3.93
2023-03-26T22:43:02.478Z,3.52
2023-03-26T22:47:02.406Z,3.52
2023-03-26T22:51:02.328Z,2.96
2023-03-26T22:55:02.303Z,2.72
2023-03-26T22:59:02.322Z,2.54
2023-03-26T23:03:02.105Z,2.68
2023-03-26T23:07:02.018Z,2.73
2023-03-26T23:11:01.938Z,2.88
2023-03-26T23:15:01.966Z,2.96
2023-03-26T23:19:01.898Z,3.04
2023-03-26T23:23:01.852Z,3.17
2023-03-26T23:27:01.888Z,3.26
2023-03-26T23:31:01.808Z,3.33
2023-03-26T23:35:01.767Z,3.66
2023-03-26T23:39:01.700Z,3.59
2023-03-26T23:43:01.710Z,3.16
2023-03-26T23:47:01.659Z,3.52
2023-03-26T23:51:03.385Z,3.52
2023-03-26T23:55:01.584Z,3.61
2023-03-26T23:59:01.564Z,3.71
